Terminal Aerodrome Forecast
Issued by NWS Melbourne, FL

Current Version | Previous Version | Text Only | Print | Product List | Glossary On
Versions: 1 2 3 4 5 6 7 8 9 10 11 12 13
128
FTUS42 KMLB 260524
TAFDAB
TAF
KDAB 260524Z 2606/2706 08003KT P6SM FEW045
     FM261500 06010KT P6SM SCT035=

USA.gov is the U.S. government's official web portal to all federal, state and local government web resources and services.